Basra International Airport

ORMM · Basra, Irak

METAR anciennes ORMM · Basra International Airport

Tu vois ci-dessous les METAR des derniers jours. Sélectionne une année pour parcourir les METAR plus anciens, à partir de l'année 2007.

23 février 2024

Temps Code Temps Temp. Vue Base cloud Vent METAR/SPECI
06:00
M
12 °C 6 km - 290° 290° 4 kt METAR OIAA 230300Z 29004KT 6000 NSC 12/08 Q1020
05:00
V
13 °C 10 km+ - 200° 200° 2 kt METAR OIAA 230200Z 20002KT CAVOK 13/07 Q1019
04:00
V
13 °C 10 km+ - 320° 320° 2 kt METAR OIAA 230100Z 32002KT CAVOK 13/08 Q1019
03:00
V
13 °C 10 km+ - 320° 320° 2 kt METAR OIAA 230000Z 32002KT CAVOK 13/08 Q1019
02:00
V
13 °C 10 km+ - 300° 300° 2 kt METAR OIAA 222300Z 30002KT CAVOK 13/08 Q1019
01:00
V
14 °C 10 km+ - 260° 260° 2 kt METAR OIAA 222200Z 26002KT CAVOK 14/09 Q1019
00:00
V
15 °C 10 km+ - 270° 270° 2 kt METAR OIAA 222100Z 27002KT CAVOK 15/10 Q1020

22 février 2024

Temps Code Temps Temp. Vue Base cloud Vent METAR/SPECI
23:00
V
15 °C 10 km+ - 250° 250° 2 kt METAR OIAA 222000Z 25002KT CAVOK 15/08 Q1020
22:00
V
18 °C 10 km+ - 010° 010° 2 kt METAR OIAA 221900Z 01002KT CAVOK 18/07 Q1020
21:00
V
18 °C 10 km+ - 020° 020° 2 kt METAR OIAA 221800Z 02002KT CAVOK 18/07 Q1020
20:00
V
19 °C 10 km+ - 020° 020° 2 kt METAR OIAA 221700Z 02002KT CAVOK 19/08 Q1020
19:00
V
20 °C 10 km+ - 350° 350° 2 kt METAR OIAA 221600Z 35002KT CAVOK 20/07 Q1020
18:00
V
21 °C 10 km+ - 020° 020° 6 kt METAR OIAA 221500Z 02006KT CAVOK 21/06 Q1019
17:30
V
22 °C 10 km+ - 030° 030° 10 kt METAR OIAA 221430Z 03010KT CAVOK 22/06 Q1019
17:00
V
22 °C 10 km+ - 010° 010° 8 kt METAR OIAA 221400Z 01008KT CAVOK 22/06 Q1019
16:00
V
24 °C 10 km+ - 010° 010° 8 kt METAR OIAA 221300Z 01008KT CAVOK 24/06 Q1019
15:00
V
23 °C 10 km+ - 310° 310° 6 kt METAR OIAA 221200Z 31006KT CAVOK 23/06 Q1019
14:00
V
22 °C 10 km+ - 290° 290° 8 kt METAR OIAA 221100Z 29008KT CAVOK 22/07 Q1020
13:00
V
22 °C 10 km+ - 350° 350° 8 kt METAR OIAA 221000Z 35008KT CAVOK 22/07 Q1021
12:00
V
21 °C 10 km+ - 320° 320° 8 kt METAR OIAA 220900Z 32008KT CAVOK 21/06 Q1022
11:00
V
20 °C 10 km+ - 320° 320° 4 kt METAR OIAA 220800Z 32004KT CAVOK 20/07 Q1022
10:30
V
19 °C 10 km+ - 310° 310° 6 kt METAR OIAA 220730Z 31006KT CAVOK 19/07 Q1023
10:00
V
19 °C 8 km - 270° 270° 4 kt METAR OIAA 220700Z 27004KT 8000 NSC 19/09 Q1022
09:00
M
17 °C 7 km - 280° 280° 4 kt METAR OIAA 220600Z 28004KT 7000 NSC 17/09 Q1022
08:00
M
14 °C 6 km - 270° 270° 2 kt METAR OIAA 220500Z 27002KT 6000 NSC 14/09 Q1022
07:00
M
12 °C 5 km - 290° 290° 4 kt METAR OIAA 220400Z 29004KT 5000 HZ NSC 12/08 Q1021
06:00
V
13 °C 10 km+ - 340° 340° 4 kt METAR OIAA 220300Z 34004KT CAVOK 13/07 Q1021
05:00
V
13 °C 10 km+ - 320° 320° 4 kt METAR OIAA 220200Z 32004KT CAVOK 13/07 Q1021
04:00
V
13 °C 10 km+ - 280° 280° 2 kt METAR OIAA 220100Z 28002KT CAVOK 13/08 Q1021
02:00
V
14 °C 10 km+ - 320° 320° 2 kt METAR OIAA 212300Z 32002KT CAVOK 14/08 Q1021
01:00
V
14 °C 10 km+ - 310° 310° 2 kt METAR OIAA 212200Z 31002KT CAVOK 14/07 Q1021
00:00
V
15 °C 10 km+ - 300° 300° 2 kt METAR OIAA 212100Z 30002KT CAVOK 15/08 Q1021

21 février 2024

Temps Code Temps Temp. Vue Base cloud Vent METAR/SPECI
23:00
V
16 °C 10 km+ - 310° 310° 4 kt METAR OIAA 212000Z 31004KT CAVOK 16/07 Q1021
22:00
V
16 °C 10 km+ - 300° 300° 4 kt METAR OIAA 211900Z 30004KT CAVOK 16/09 Q1021
21:30
V
18 °C 10 km+ - 320° 320° 4 kt METAR OIAA 211830Z 32004KT CAVOK 18/07 Q1021
21:00
V
18 °C 10 km+ - 320° 320° 4 kt METAR OIAA 211800Z 32004KT CAVOK 18/07 Q1021
20:00
V
19 °C 10 km+ - 340° 340° 4 kt METAR OIAA 211700Z 34004KT CAVOK 19/06 Q1021
19:00
V
20 °C 10 km+ - 330° 330° 6 kt METAR OIAA 211600Z 33006KT CAVOK 20/03 Q1020
18:00
V
21 °C 10 km+ - 320° 320° 8 kt METAR OIAA 211500Z 32008KT CAVOK 21/03 Q1020
17:00
V
22 °C 10 km+ - 350° 350° 8 kt METAR OIAA 211400Z 35008KT CAVOK 22/08 Q1019
16:00
V
23 °C 10 km+ - 330° 330° 10 kt METAR OIAA 211300Z 33010KT 9999 FEW030 23/07 Q1019
15:00
V
23 °C 10 km+ - 330° 330° 6 kt METAR OIAA 211200Z 33006KT 9999 FEW030 23/06 Q1019
13:00
V
22 °C 10 km+ - 290° 290° 6 kt METAR OIAA 211000Z 29006KT CAVOK 22/08 Q1021
12:00
V
21 °C 10 km+ - 330° 330° 10 kt METAR OIAA 210900Z 33010KT CAVOK 21/09 Q1021
11:00
V
21 °C 10 km+ - 320° 320° 10 kt METAR OIAA 210800Z 32010KT CAVOK 21/10 Q1021
10:00
M
22 °C 7 km - 060° 060° 4 kt METAR OIAA 210700Z 06004KT 7000 NSC 22/09 Q1021
07:00
I
13 °C 4 km - 020° 020° 4 kt METAR OIAA 210400Z 02004KT 4000 BR NSC 13/10 Q1020
06:00
M
13 °C 6 km - 020° 020° 4 kt METAR OIAA 210300Z 02004KT 6000 NSC 13/10 Q1020
05:00
V
13 °C 10 km+ - 260° 260° 2 kt METAR OIAA 210200Z 26002KT CAVOK 13/10 Q1019
04:00
V
13 °C 10 km+ - 280° 280° 2 kt METAR OIAA 210100Z 28002KT CAVOK 13/10 Q1019
03:00
V
13 °C 10 km+ - 180° 180° 2 kt METAR OIAA 210000Z 18002KT CAVOK 13/10 Q1019
02:00
V
14 °C 10 km+ - 200° 200° 2 kt METAR OIAA 202300Z 20002KT CAVOK 14/10 Q1019
01:00
V
15 °C 10 km+ - 310° 310° 2 kt METAR OIAA 202200Z 31002KT CAVOK 15/10 Q1019
00:00
V
16 °C 10 km+ - 070° 070° 2 kt METAR OIAA 202100Z 07002KT CAVOK 16/10 Q1019

20 février 2024

Temps Code Temps Temp. Vue Base cloud Vent METAR/SPECI
23:00
V
17 °C 10 km+ - 040° 040° 4 kt METAR OIAA 202000Z 04004KT CAVOK 17/09 Q1019
22:00
V
18 °C 10 km+ - 020° 020° 4 kt METAR OIAA 201900Z 02004KT CAVOK 18/09 Q1019
21:00
V
17 °C 10 km+ - 050° 050° 2 kt METAR OIAA 201800Z 05002KT CAVOK 17/08 Q1019
20:30
V
18 °C 10 km+ - 060° 060° 2 kt METAR OIAA 201730Z 06002KT CAVOK 18/08 Q1019
20:00
V
18 °C 10 km+ - 040° 040° 2 kt METAR OIAA 201700Z 04002KT CAVOK 18/07 Q1018
19:30
V
20 °C 10 km+ - 020° 020° 2 kt METAR OIAA 201630Z 02002KT CAVOK 20/07 Q1018
19:00
V
20 °C 10 km+ - 020° 020° 4 kt METAR OIAA 201600Z 02004KT CAVOK 20/07 Q1018
18:00
V
21 °C 10 km+ - 020° 020° 4 kt METAR OIAA 201500Z 02004KT CAVOK 21/06 Q1017
17:00
V
23 °C 10 km+ - 360° 360° 6 kt METAR OIAA 201400Z 36006KT 9999 SCT035 23/07 Q1017
16:00
V
23 °C 10 km+ - 300° 300° 6 kt METAR OIAA 201300Z 30006KT 9999 SCT035 23/06 Q1017
15:00
V
24 °C 10 km+ - 330° 330° 10 kt METAR OIAA 201200Z 33010KT 9999 SCT035 24/06 Q1017
14:00
V
23 °C 10 km+ - 020° 020° 6 kt METAR OIAA 201100Z 02006KT CAVOK 23/06 Q1017
13:00
V
23 °C 10 km+ - 360° 360° 8 kt METAR OIAA 201000Z 36008KT CAVOK 23/06 Q1018
12:00
V
22 °C 10 km+ - 340° 340° 10 kt METAR OIAA 200900Z 34010KT CAVOK 22/06 Q1019
11:00
V
22 °C 8 km - 330° 330° 8 kt METAR OIAA 200800Z 33008KT 8000 NSC 22/09 Q1019
10:00
V
21 °C 8 km - 350° 350° 4 kt METAR OIAA 200700Z 35004KT 8000 NSC 21/09 Q1019
09:00
M
19 °C 5 km - 290° 290° 2 kt METAR OIAA 200600Z 29002KT 5000 HZ NSC 19/11 Q1019